createdAt,value
2018-04-11T00:00:42.151Z,0
2018-04-11T00:01:42.135Z,0
2018-04-11T00:02:42.112Z,0
2018-04-11T00:03:41.903Z,0
2018-04-11T00:04:42.072Z,0
2018-04-11T00:05:41.800Z,0
2018-04-11T00:06:41.777Z,0
2018-04-11T00:07:42.002Z,0
2018-04-11T00:08:41.729Z,0
2018-04-11T00:09:41.716Z,0
2018-04-11T00:10:41.797Z,0
2018-04-11T00:11:41.923Z,0
2018-04-11T00:12:41.656Z,0
2018-04-11T00:13:41.382Z,0
2018-04-11T00:14:41.863Z,0
2018-04-11T00:15:41.838Z,0
2018-04-11T00:16:41.818Z,0
2018-04-11T00:17:41.799Z,0
2018-04-11T00:18:41.776Z,0
2018-04-11T00:19:41.511Z,0
2018-04-11T00:20:41.481Z,0
2018-04-11T00:21:41.711Z,0
2018-04-11T00:22:41.699Z,0
2018-04-11T00:23:41.683Z,0
2018-04-11T00:24:41.655Z,0
2018-04-11T00:25:41.631Z,0
2018-04-11T00:26:41.112Z,0
2018-04-11T00:27:41.585Z,0
2018-04-11T00:28:41.569Z,0
2018-04-11T00:29:41.548Z,0
2018-04-11T00:30:41.277Z,0
2018-04-11T00:31:41.258Z,0
2018-04-11T00:32:41.478Z,0
2018-04-11T00:33:41.458Z,0
2018-04-11T00:34:41.435Z,0
2018-04-11T00:35:41.412Z,0
2018-04-11T00:36:41.148Z,0
2018-04-11T00:37:41.125Z,0
2018-04-11T00:38:41.100Z,0
2018-04-11T00:39:41.333Z,0
2018-04-11T00:40:41.317Z,0
2018-04-11T00:41:41.289Z,0
2018-04-11T00:42:41.025Z,0
2018-04-11T00:43:40.993Z,0
2018-04-11T00:44:41.230Z,0
2018-04-11T00:45:41.202Z,0
2018-04-11T00:46:41.179Z,0
2018-04-11T00:47:41.160Z,0
2018-04-11T00:48:41.143Z,0
2018-04-11T00:49:40.867Z,0
2018-04-11T00:50:40.602Z,0
2018-04-11T00:51:40.580Z,0
2018-04-11T00:52:41.052Z,0
2018-04-11T00:53:41.029Z,0
2018-04-11T00:54:40.757Z,0
2018-04-11T00:55:40.739Z,0
2018-04-11T00:56:41.079Z,0
2018-04-11T00:57:40.954Z,0
2018-04-11T00:58:40.707Z,0
2018-04-11T00:59:40.903Z,0
2018-04-11T01:00:40.884Z,0
2018-04-11T01:01:40.860Z,0
2018-04-11T01:02:40.846Z,0
2018-04-11T01:03:40.570Z,0
2018-04-11T01:04:40.547Z,0
2018-04-11T01:05:40.530Z,0
2018-04-11T01:06:40.258Z,0
2018-04-11T01:07:40.730Z,0
2018-04-11T01:08:40.708Z,0
2018-04-11T01:09:40.691Z,0
2018-04-11T01:10:40.675Z,0
2018-04-11T01:11:40.397Z,0
2018-04-11T01:12:40.624Z,0
2018-04-11T01:13:40.607Z,0
2018-04-11T01:14:40.334Z,0
2018-04-11T01:15:40.064Z,0
2018-04-11T01:16:40.575Z,0
2018-04-11T01:17:41.148Z,0
2018-04-11T01:18:40.495Z,0
2018-04-11T01:19:40.477Z,0
2018-04-11T01:20:40.455Z,0
2018-04-11T01:21:40.197Z,0
2018-04-11T01:22:40.412Z,0
2018-04-11T01:23:40.399Z,0
2018-04-11T01:24:40.124Z,0
2018-04-11T01:25:40.351Z,0
2018-04-11T01:26:40.334Z,0
2018-04-11T01:27:40.307Z,0
2018-04-11T01:28:40.040Z,0
2018-04-11T01:29:40.267Z,0
2018-04-11T01:30:40.265Z,0
2018-04-11T01:31:40.224Z,0
2018-04-11T01:32:39.957Z,0
2018-04-11T01:33:40.217Z,0
2018-04-11T01:34:40.157Z,0
2018-04-11T01:35:40.141Z,0
2018-04-11T01:36:40.125Z,0
2018-04-11T01:37:39.848Z,0
2018-04-11T01:38:39.832Z,0
2018-04-11T01:39:40.049Z,0
2018-04-11T01:40:40.027Z,0
2018-04-11T01:41:40.028Z,0
2018-04-11T01:42:39.744Z,0
2018-04-11T01:43:39.975Z,0
2018-04-11T01:44:39.941Z,0
2018-04-11T01:45:39.972Z,0
2018-04-11T01:46:39.907Z,0
2018-04-11T01:47:39.881Z,0
2018-04-11T01:48:39.862Z,0
2018-04-11T01:49:39.837Z,0
2018-04-11T01:50:39.821Z,0
2018-04-11T01:51:39.793Z,0
2018-04-11T01:52:39.772Z,0
2018-04-11T01:53:39.505Z,0
2018-04-11T01:54:39.739Z,0
2018-04-11T01:55:39.705Z,0
2018-04-11T01:56:39.447Z,0
2018-04-11T01:57:39.426Z,0
2018-04-11T01:58:39.655Z,0
2018-04-11T01:59:39.382Z,0
2018-04-11T02:00:39.755Z,0
2018-04-11T02:01:39.589Z,0
2018-04-11T02:02:39.568Z,0
2018-04-11T02:03:39.543Z,0
2018-04-11T02:04:39.525Z,0
2018-04-11T02:05:39.252Z,0
2018-04-11T02:06:39.237Z,0
2018-04-11T02:07:39.458Z,0
2018-04-11T02:08:39.439Z,0
2018-04-11T02:09:39.303Z,0
2018-04-11T02:10:39.400Z,0
2018-04-11T02:11:39.370Z,0
2018-04-11T02:12:39.355Z,0
2018-04-11T02:13:39.328Z,0
2018-04-11T02:14:39.062Z,0
2018-04-11T02:15:39.039Z,0
2018-04-11T02:16:39.014Z,0
2018-04-11T02:17:39.248Z,0
2018-04-11T02:18:39.221Z,0
2018-04-11T02:19:39.202Z,0
2018-04-11T02:20:38.931Z,0
2018-04-11T02:21:38.913Z,0
2018-04-11T02:22:39.194Z,0
2018-04-11T02:23:38.621Z,0
2018-04-11T02:24:39.097Z,0
2018-04-11T02:25:39.069Z,0
2018-04-11T02:26:38.804Z,0
2018-04-11T02:27:39.056Z,0
2018-04-11T02:28:39.013Z,0
2018-04-11T02:29:38.740Z,0
2018-04-11T02:30:38.717Z,0
2018-04-11T02:31:38.938Z,0
2018-04-11T02:32:38.935Z,0
2018-04-11T02:33:38.904Z,0
2018-04-11T02:34:38.629Z,0
2018-04-11T02:35:38.611Z,0
2018-04-11T02:36:38.595Z,0
2018-04-11T02:37:38.832Z,0
2018-04-11T02:38:38.794Z,0
2018-04-11T02:39:38.779Z,0
2018-04-11T02:40:38.753Z,0
2018-04-11T02:41:38.484Z,0
2018-04-11T02:42:38.718Z,0
2018-04-11T02:43:38.451Z,0
2018-04-11T02:44:38.176Z,0
2018-04-11T02:45:38.401Z,0
2018-04-11T02:46:38.627Z,0
2018-04-11T02:47:38.607Z,0
2018-04-11T02:48:38.597Z,0
2018-04-11T02:49:38.310Z,0
2018-04-11T02:50:38.545Z,0
2018-04-11T02:51:38.516Z,0
2018-04-11T02:52:38.241Z,0
2018-04-11T02:53:38.262Z,0
2018-04-11T02:54:38.454Z,0
2018-04-11T02:55:38.428Z,0
2018-04-11T02:56:38.412Z,0
2018-04-11T02:57:38.380Z,0
2018-04-11T02:58:38.363Z,0
2018-04-11T02:59:38.347Z,0
2018-04-11T03:00:38.320Z,0
2018-04-11T03:01:38.091Z,0
2018-04-11T03:02:38.026Z,0
2018-04-11T03:03:38.354Z,0
2018-04-11T03:04:38.226Z,0
2018-04-11T03:05:37.964Z,0
2018-04-11T03:06:38.477Z,0
2018-04-11T03:07:38.166Z,0
2018-04-11T03:08:37.892Z,0
2018-04-11T03:09:37.876Z,0
2018-04-11T03:10:37.632Z,0
2018-04-11T03:11:38.089Z,0
2018-04-11T03:12:38.058Z,0
2018-04-11T03:13:38.030Z,0
2018-04-11T03:14:38.045Z,0
2018-04-11T03:15:37.776Z,0
2018-04-11T03:16:37.978Z,0
2018-04-11T03:17:37.948Z,0
2018-04-11T03:18:37.423Z,0
2018-04-11T03:19:37.905Z,0
2018-04-11T03:20:37.876Z,0
2018-04-11T03:21:37.865Z,0
2018-04-11T03:22:37.834Z,0
2018-04-11T03:23:37.821Z,0
2018-04-11T03:24:37.542Z,0
2018-04-11T03:25:37.782Z,0
2018-04-11T03:26:37.502Z,0
2018-04-11T03:27:37.725Z,0
2018-04-11T03:28:37.452Z,0
2018-04-11T03:29:37.676Z,0
2018-04-11T03:30:37.670Z,0
2018-04-11T03:31:37.400Z,0
2018-04-11T03:32:37.628Z,0
2018-04-11T03:33:37.706Z,0
2018-04-11T03:34:37.579Z,0
2018-04-11T03:35:37.552Z,0
2018-04-11T03:36:37.529Z,0
2018-04-11T03:37:37.253Z,0
2018-04-11T03:38:37.487Z,0
2018-04-11T03:39:37.213Z,0
2018-04-11T03:40:37.437Z,0
2018-04-11T03:41:37.422Z,0
2018-04-11T03:42:37.394Z,0
2018-04-11T03:43:37.379Z,0
2018-04-11T03:44:37.112Z,0
2018-04-11T03:45:36.834Z,0
2018-04-11T03:46:36.811Z,0
2018-04-11T03:47:37.286Z,0
2018-04-11T03:48:37.018Z,0
2018-04-11T03:49:37.257Z,0
2018-04-11T03:50:36.981Z,0
2018-04-11T03:51:37.199Z,0
2018-04-11T03:52:37.220Z,0
2018-04-11T03:53:37.153Z,0
2018-04-11T03:54:36.635Z,0
2018-04-11T03:55:36.612Z,0
2018-04-11T03:56:37.092Z,0
2018-04-11T03:57:37.066Z,0
2018-04-11T03:58:37.040Z,0
2018-04-11T03:59:37.016Z,0
2018-04-11T04:00:36.754Z,0
2018-04-11T04:01:36.782Z,0
2018-04-11T04:02:36.958Z,0
2018-04-11T04:03:36.935Z,0
2018-04-11T04:04:36.903Z,0
2018-04-11T04:05:36.882Z,0
2018-04-11T04:06:36.867Z,0
2018-04-11T04:07:36.611Z,0
2018-04-11T04:08:36.822Z,0
2018-04-11T04:09:36.857Z,0
2018-04-11T04:10:36.779Z,0
2018-04-11T04:11:36.522Z,4
2018-04-11T04:12:36.741Z,4
2018-04-11T04:13:36.461Z,4
2018-04-11T04:14:36.815Z,0
2018-04-11T04:15:37.055Z,4
2018-04-11T04:16:36.635Z,4
2018-04-11T04:17:36.621Z,4
2018-04-11T04:18:36.597Z,8
2018-04-11T04:19:36.336Z,4
2018-04-11T04:20:36.554Z,4
2018-04-11T04:21:36.281Z,8
2018-04-11T04:22:36.505Z,4
2018-04-11T04:23:36.242Z,8
2018-04-11T04:24:36.469Z,8
2018-04-11T04:25:36.447Z,8
2018-04-11T04:26:36.423Z,12
2018-04-11T04:27:35.899Z,12
2018-04-11T04:28:36.130Z,12
2018-04-11T04:29:36.506Z,16
2018-04-11T04:30:36.334Z,20
2018-04-11T04:31:36.307Z,24
2018-04-11T04:32:36.037Z,28
2018-04-11T04:33:36.016Z,32
2018-04-11T04:34:36.240Z,36
2018-04-11T04:35:35.973Z,40
2018-04-11T04:36:35.704Z,44
2018-04-11T04:37:36.174Z,44
2018-04-11T04:38:36.160Z,40
2018-04-11T04:39:36.136Z,40
2018-04-11T04:40:36.132Z,40
2018-04-11T04:41:36.095Z,48
2018-04-11T04:42:36.075Z,52
2018-04-11T04:43:36.192Z,64
2018-04-11T04:44:36.131Z,76
2018-04-11T04:45:36.005Z,92
2018-04-11T04:46:35.996Z,108
2018-04-11T04:47:35.961Z,128
2018-04-11T04:48:35.985Z,148
2018-04-11T04:49:35.916Z,176
2018-04-11T04:50:35.907Z,188
2018-04-11T04:51:35.911Z,200
2018-04-11T04:52:35.594Z,236
2018-04-11T04:53:35.832Z,304
2018-04-11T04:54:35.810Z,372
2018-04-11T04:55:35.534Z,424
2018-04-11T04:56:35.517Z,468
2018-04-11T04:57:35.764Z,504
2018-04-11T04:58:35.716Z,524
2018-04-11T04:59:35.708Z,532
2018-04-11T05:00:35.680Z,520
2018-04-11T05:01:35.702Z,504
2018-04-11T05:02:35.637Z,476
2018-04-11T05:03:35.371Z,440
2018-04-11T05:04:35.338Z,424
2018-04-11T05:05:35.321Z,420
2018-04-11T05:06:35.547Z,444
2018-04-11T05:07:35.581Z,496
2018-04-11T05:08:35.253Z,560
2018-04-11T05:09:35.482Z,620
2018-04-11T05:10:35.465Z,676
2018-04-11T05:11:35.474Z,696
2018-04-11T05:12:35.412Z,672
2018-04-11T05:13:34.898Z,628
2018-04-11T05:14:35.378Z,608
2018-04-11T05:15:35.350Z,636
2018-04-11T05:16:35.339Z,716
2018-04-11T05:17:35.307Z,800
2018-04-11T05:18:35.036Z,864
2018-04-11T05:19:35.262Z,904
2018-04-11T05:20:35.238Z,952
2018-04-11T05:21:34.974Z,1032
2018-04-11T05:22:34.961Z,1128
2018-04-11T05:23:35.180Z,1264
2018-04-11T05:24:35.159Z,1420
2018-04-11T05:25:35.129Z,1564
2018-04-11T05:26:34.863Z,1660
2018-04-11T05:27:35.083Z,1772
2018-04-11T05:28:34.819Z,1948
2018-04-11T05:29:35.049Z,2088
2018-04-11T05:30:35.040Z,2108
2018-04-11T05:31:35.009Z,2072
2018-04-11T05:32:34.974Z,2000
2018-04-11T05:33:34.954Z,1940
2018-04-11T05:34:34.935Z,1892
2018-04-11T05:35:34.920Z,1864
2018-04-11T05:36:34.902Z,1868
2018-04-11T05:37:34.631Z,1864
2018-04-11T05:38:34.602Z,1864
2018-04-11T05:39:34.831Z,1856
2018-04-11T05:40:34.810Z,1860
2018-04-11T05:41:34.793Z,1888
2018-04-11T05:42:34.815Z,1908
2018-04-11T05:43:34.738Z,1912
2018-04-11T05:44:34.474Z,1936
2018-04-11T05:45:34.456Z,1956
2018-04-11T05:46:34.683Z,1924
2018-04-11T05:47:34.269Z,1872
2018-04-11T05:48:34.395Z,1828
2018-04-11T05:49:34.374Z,1732
2018-04-11T05:50:35.338Z,1572
2018-04-11T05:51:34.566Z,1428
2018-04-11T05:52:34.551Z,1348
2018-04-11T05:53:34.337Z,1336
2018-04-11T05:54:34.252Z,1344
2018-04-11T05:55:34.481Z,1368
2018-04-11T05:56:34.466Z,1428
2018-04-11T05:57:34.201Z,1492
2018-04-11T05:58:34.174Z,1560
2018-04-11T05:59:34.396Z,1588
2018-04-11T06:00:34.375Z,1588
2018-04-11T06:01:34.357Z,1632
2018-04-11T06:02:34.336Z,1700
2018-04-11T06:03:34.062Z,1716
2018-04-11T06:04:34.298Z,1700
2018-04-11T06:05:34.394Z,1716
2018-04-11T06:06:34.250Z,1716
2018-04-11T06:07:34.226Z,1612
2018-04-11T06:08:34.210Z,1484
2018-04-11T06:09:33.940Z,1408
2018-04-11T06:10:33.922Z,1348
2018-04-11T06:11:33.399Z,1268
2018-04-11T06:12:33.624Z,1248
2018-04-11T06:13:33.853Z,1284
2018-04-11T06:14:33.581Z,1356
2018-04-11T06:15:33.816Z,1440
2018-04-11T06:16:34.045Z,1508
2018-04-11T06:17:34.026Z,1524
2018-04-11T06:18:33.994Z,1604
2018-04-11T06:19:33.980Z,1644
2018-04-11T06:20:33.959Z,1584
2018-04-11T06:21:33.679Z,1548
2018-04-11T06:22:33.410Z,1588
2018-04-11T06:23:33.887Z,1696
2018-04-11T06:24:33.617Z,1908
2018-04-11T06:25:33.845Z,2324
2018-04-11T06:26:33.576Z,2908
2018-04-11T06:27:33.303Z,3672
2018-04-11T06:28:33.530Z,4480
2018-04-11T06:29:33.010Z,4980
2018-04-11T06:30:33.736Z,5324
2018-04-11T06:31:33.714Z,5604
2018-04-11T06:32:33.451Z,5856
2018-04-11T06:33:33.675Z,6144
2018-04-11T06:34:33.409Z,6232
2018-04-11T06:35:33.385Z,5824
2018-04-11T06:36:33.607Z,5464
2018-04-11T06:37:33.584Z,5332
2018-04-11T06:38:33.319Z,5300
2018-04-11T06:39:33.554Z,5504
2018-04-11T06:40:33.527Z,5752
2018-04-11T06:41:33.259Z,6040
2018-04-11T06:42:33.481Z,6332
2018-04-11T06:43:33.212Z,6492
2018-04-11T06:44:33.207Z,7032
2018-04-11T06:45:33.435Z,7284
2018-04-11T06:46:33.396Z,7204
2018-04-11T06:47:33.483Z,6772
2018-04-11T06:48:32.859Z,6252
2018-04-11T06:49:32.841Z,5948
2018-04-11T06:50:33.321Z,5780
2018-04-11T06:51:33.392Z,5472
2018-04-11T06:52:33.285Z,5276
2018-04-11T06:53:32.767Z,5440
2018-04-11T06:54:32.989Z,5824
2018-04-11T06:55:33.248Z,6124
2018-04-11T06:56:33.198Z,6208
2018-04-11T06:57:33.172Z,6136
2018-04-11T06:58:33.152Z,5848
2018-04-11T06:59:32.881Z,4960
2018-04-11T07:00:33.114Z,4096
2018-04-11T07:01:33.096Z,3936
2018-04-11T07:02:33.072Z,4420
2018-04-11T07:03:33.049Z,5100
2018-04-11T07:04:33.028Z,5528
2018-04-11T07:05:32.513Z,5168
2018-04-11T07:06:32.988Z,4720
2018-04-11T07:07:32.719Z,5000
2018-04-11T07:08:32.952Z,5828
2018-04-11T07:09:32.960Z,6928
2018-04-11T07:10:32.671Z,7896
2018-04-11T07:11:32.632Z,8392
2018-04-11T07:12:32.723Z,8520
2018-04-11T07:13:32.847Z,9280
2018-04-11T07:14:32.825Z,10400
2018-04-11T07:15:32.554Z,10992
2018-04-11T07:16:32.530Z,10896
2018-04-11T07:17:32.771Z,10872
2018-04-11T07:18:32.496Z,11084
2018-04-11T07:19:32.733Z,11152
2018-04-11T07:20:32.454Z,11020
2018-04-11T07:21:32.439Z,10760
2018-04-11T07:22:32.704Z,10476
2018-04-11T07:23:32.648Z,10572
2018-04-11T07:24:32.636Z,10588
2018-04-11T07:25:32.700Z,10720
2018-04-11T07:26:32.870Z,11092
2018-04-11T07:27:32.579Z,11420
2018-04-11T07:28:32.544Z,11240
2018-04-11T07:29:32.282Z,10696
2018-04-11T07:30:32.258Z,10280
2018-04-11T07:31:32.235Z,9704
2018-04-11T07:32:32.486Z,9480
2018-04-11T07:33:31.955Z,9556
2018-04-11T07:34:32.193Z,10204
2018-04-11T07:35:32.412Z,10456
2018-04-11T07:36:32.389Z,10592
2018-04-11T07:37:32.373Z,10356
2018-04-11T07:38:32.361Z,10072
2018-04-11T07:39:32.094Z,9836
2018-04-11T07:40:32.459Z,9352
2018-04-11T07:41:32.298Z,8624
2018-04-11T07:42:32.291Z,8240
2018-04-11T07:43:32.352Z,8464
2018-04-11T07:44:32.801Z,8916
2018-04-11T07:45:32.921Z,9108
2018-04-11T07:46:31.958Z,9344
2018-04-11T07:47:32.184Z,9148
2018-04-11T07:48:32.176Z,8896
2018-04-11T07:49:32.145Z,8644
2018-04-11T07:50:31.884Z,8860
2018-04-11T07:51:31.868Z,8356
2018-04-11T07:52:32.092Z,7476
2018-04-11T07:53:32.069Z,6912
2018-04-11T07:54:31.929Z,6596
2018-04-11T07:55:32.034Z,6484
2018-04-11T07:56:32.014Z,6252
2018-04-11T07:57:31.841Z,6264
2018-04-11T07:58:31.987Z,6860
2018-04-11T07:59:31.503Z,7496
2018-04-11T08:00:31.686Z,8016
2018-04-11T08:01:31.670Z,8360
2018-04-11T08:02:32.068Z,8432
2018-04-11T08:03:31.958Z,8568
2018-04-11T08:04:31.871Z,8764
2018-04-11T08:05:31.842Z,8992
2018-04-11T08:06:31.815Z,9472
2018-04-11T08:07:31.660Z,9644
2018-04-11T08:08:31.284Z,9620
2018-04-11T08:09:31.276Z,9908
2018-04-11T08:10:31.492Z,11952
2018-04-11T08:11:31.225Z,14840
2018-04-11T08:12:31.805Z,17260
2018-04-11T08:13:33.629Z,18880
2018-04-11T08:14:32.734Z,20320
2018-04-11T08:15:31.835Z,23648
2018-04-11T08:16:31.132Z,26304
2018-04-11T08:17:31.372Z,24576
2018-04-11T08:18:31.584Z,23904
2018-04-11T08:19:31.349Z,24000
2018-04-11T08:20:31.596Z,23520
2018-04-11T08:21:31.284Z,23776
2018-04-11T08:22:31.510Z,24032
2018-04-11T08:23:31.246Z,24544
2018-04-11T08:24:31.480Z,24896
2018-04-11T08:25:31.207Z,24864
2018-04-11T08:26:31.440Z,24320
2018-04-11T08:27:31.170Z,23456
2018-04-11T08:28:31.155Z,22976
2018-04-11T08:29:31.143Z,23392
2018-04-11T08:30:30.624Z,22208
2018-04-11T08:31:31.394Z,21472
2018-04-11T08:32:31.343Z,20864
2018-04-11T08:33:31.076Z,20352
2018-04-11T08:34:33.796Z,21408
2018-04-11T08:35:31.077Z,23456
2018-04-11T08:36:31.279Z,24448
2018-04-11T08:37:31.254Z,23968
2018-04-11T08:38:30.978Z,24320
2018-04-11T08:39:30.969Z,23200
2018-04-11T08:40:31.202Z,22848
2018-04-11T08:41:31.184Z,21280
2018-04-11T08:42:30.924Z,20160
2018-04-11T08:43:31.149Z,20192
2018-04-11T08:44:30.638Z,22048
2018-04-11T08:45:30.864Z,23680
2018-04-11T08:46:31.100Z,24480
2018-04-11T08:47:31.201Z,21024
2018-04-11T08:48:30.816Z,16672
2018-04-11T08:49:31.058Z,15680
2018-04-11T08:50:30.782Z,17220
2018-04-11T08:51:31.011Z,18880
2018-04-11T08:52:31.117Z,18816
2018-04-11T08:53:30.735Z,18240
2018-04-11T08:54:30.721Z,19968
2018-04-11T08:55:30.733Z,26464
2018-04-11T08:56:30.689Z,29472
2018-04-11T08:57:30.673Z,28960
2018-04-11T08:58:30.906Z,29120
2018-04-11T08:59:30.638Z,27872
2018-04-11T09:00:30.875Z,26432
2018-04-11T09:01:30.598Z,23264
2018-04-11T09:02:30.594Z,20800
2018-04-11T09:03:30.819Z,22336
2018-04-11T09:04:30.567Z,27936
2018-04-11T09:05:31.032Z,28032
2018-04-11T09:06:30.772Z,25408
2018-04-11T09:07:30.510Z,23648
2018-04-11T09:08:30.493Z,22592
2018-04-11T09:09:30.228Z,21600
2018-04-11T09:10:30.706Z,21280
2018-04-11T09:11:30.694Z,22208
2018-04-11T09:12:30.431Z,22304
2018-04-11T09:13:30.409Z,19552
2018-04-11T09:14:30.152Z,15900
2018-04-11T09:15:30.381Z,16008
2018-04-11T09:16:30.122Z,19168
2018-04-11T09:17:30.602Z,18688
2018-04-11T09:18:30.095Z,13720
2018-04-11T09:19:30.142Z,10884
2018-04-11T09:20:30.059Z,9600
2018-04-11T09:21:30.543Z,9600
2018-04-11T09:22:30.273Z,11156
2018-04-11T09:23:30.258Z,13568
2018-04-11T09:24:30.493Z,16708
2018-04-11T09:25:30.479Z,20128
2018-04-11T09:26:29.965Z,21120
2018-04-11T09:27:30.444Z,23200
2018-04-11T09:28:30.429Z,27008
2018-04-11T09:29:30.444Z,27936
2018-04-11T09:30:30.395Z,26720
2018-04-11T09:31:29.879Z,24928
2018-04-11T09:32:29.871Z,26560
2018-04-11T09:33:29.849Z,32224
2018-04-11T09:34:29.832Z,32768
2018-04-11T09:35:30.319Z,30464
2018-04-11T09:36:29.805Z,31488
2018-04-11T09:37:30.292Z,33056
2018-04-11T09:38:30.020Z,30080
2018-04-11T09:39:31.570Z,27040
2018-04-11T09:40:30.246Z,31040
2018-04-11T09:41:29.985Z,31264
2018-04-11T09:42:29.969Z,30336
2018-04-11T09:43:30.194Z,27296
2018-04-11T09:44:30.174Z,23296
2018-04-11T09:45:29.417Z,26272
2018-04-11T09:46:30.153Z,24832
2018-04-11T09:47:30.142Z,22912
2018-04-11T09:48:30.126Z,18240
2018-04-11T09:49:29.865Z,13580
2018-04-11T09:50:29.589Z,12172
2018-04-11T09:51:29.831Z,12676
2018-04-11T09:52:29.564Z,12688
2018-04-11T09:53:29.796Z,11372
2018-04-11T09:54:29.781Z,11432
2018-04-11T09:55:29.769Z,13332
2018-04-11T09:56:29.502Z,15516
2018-04-11T09:57:29.986Z,16728
2018-04-11T09:58:29.965Z,17008
2018-04-11T09:59:29.452Z,17728
2018-04-11T10:00:30.108Z,18624
2018-04-11T10:01:29.930Z,18656
2018-04-11T10:02:29.897Z,17160
2018-04-11T10:03:29.883Z,15056
2018-04-11T10:04:29.639Z,12560
2018-04-11T10:05:29.601Z,9868
2018-04-11T10:06:29.352Z,8296
2018-04-11T10:07:29.321Z,8352
2018-04-11T10:08:29.554Z,9228
2018-04-11T10:09:29.290Z,9440
2018-04-11T10:10:29.526Z,8920
2018-04-11T10:11:29.754Z,7948
2018-04-11T10:12:29.798Z,7032
2018-04-11T10:13:29.751Z,6616
2018-04-11T10:14:29.724Z,6640
2018-04-11T10:15:29.462Z,7248
2018-04-11T10:16:30.142Z,8308
2018-04-11T10:17:29.653Z,9128
2018-04-11T10:18:29.644Z,9436
2018-04-11T10:19:29.631Z,9460
2018-04-11T10:20:29.599Z,10144
2018-04-11T10:21:29.335Z,11660
2018-04-11T10:22:29.316Z,13200
2018-04-11T10:23:29.551Z,14320
2018-04-11T10:24:29.317Z,15012
2018-04-11T10:25:29.018Z,15240
2018-04-11T10:26:29.002Z,15488
2018-04-11T10:27:29.478Z,15480
2018-04-11T10:28:28.964Z,15352
2018-04-11T10:29:29.196Z,15272
2018-04-11T10:30:29.192Z,15672
2018-04-11T10:31:29.409Z,16288
2018-04-11T10:32:29.396Z,16576
2018-04-11T10:33:29.125Z,16632
2018-04-11T10:34:29.394Z,17152
2018-04-11T10:35:29.091Z,18240
2018-04-11T10:36:29.541Z,19008
2018-04-11T10:37:29.302Z,19424
2018-04-11T10:38:29.291Z,19776
2018-04-11T10:39:29.025Z,20448
2018-04-11T10:40:29.256Z,20992
2018-04-11T10:41:29.236Z,21280
2018-04-11T10:42:28.722Z,21184
2018-04-11T10:43:29.204Z,21056
2018-04-11T10:44:28.935Z,21312
2018-04-11T10:45:28.923Z,22208
2018-04-11T10:46:28.788Z,23264
2018-04-11T10:47:29.138Z,24224
2018-04-11T10:48:29.126Z,24832
2018-04-11T10:49:28.857Z,23840
2018-04-11T10:50:29.089Z,21824
2018-04-11T10:51:28.828Z,20224
2018-04-11T10:52:29.058Z,19264
2018-04-11T10:53:29.047Z,18464
2018-04-11T10:54:28.777Z,17664
2018-04-11T10:55:29.012Z,16644
2018-04-11T10:56:28.501Z,15900
2018-04-11T10:57:28.982Z,15452
2018-04-11T10:58:28.964Z,15312
2018-04-11T10:59:28.698Z,15308
2018-04-11T11:00:28.680Z,15280
2018-04-11T11:01:28.663Z,15120
2018-04-11T11:02:28.902Z,14752
2018-04-11T11:03:28.880Z,14336
2018-04-11T11:04:28.625Z,13984
2018-04-11T11:05:28.859Z,13792
2018-04-11T11:06:28.838Z,13880
2018-04-11T11:07:28.322Z,14200
2018-04-11T11:08:28.798Z,14608
2018-04-11T11:09:28.796Z,15224
2018-04-11T11:10:28.771Z,16400
2018-04-11T11:11:28.504Z,18848
2018-04-11T11:12:28.744Z,22176
2018-04-11T11:13:28.738Z,25952
2018-04-11T11:14:28.740Z,29152
2018-04-11T11:15:28.188Z,30816
2018-04-11T11:16:28.231Z,31168
2018-04-11T11:17:28.158Z,31552
2018-04-11T11:18:28.139Z,32448
2018-04-11T11:19:28.930Z,32672
2018-04-11T11:20:28.108Z,32288
2018-04-11T11:21:28.335Z,31936
2018-04-11T11:22:28.326Z,32352
2018-04-11T11:23:28.309Z,33056
2018-04-11T11:24:28.302Z,34624
2018-04-11T11:25:28.029Z,35520
2018-04-11T11:26:28.510Z,36032
2018-04-11T11:27:28.510Z,36960
2018-04-11T11:28:27.993Z,37728
2018-04-11T11:29:28.223Z,37856
2018-04-11T11:30:27.958Z,37216
2018-04-11T11:31:28.200Z,36544
2018-04-11T11:32:28.439Z,36224
2018-04-11T11:33:28.159Z,36672
2018-04-11T11:34:28.168Z,36992
2018-04-11T11:35:28.385Z,36736
2018-04-11T11:36:28.441Z,36896
2018-04-11T11:37:28.105Z,35808
2018-04-11T11:38:28.103Z,34112
2018-04-11T11:39:28.327Z,32448
2018-04-11T11:40:28.112Z,31328
2018-04-11T11:41:28.066Z,31648
2018-04-11T11:42:27.788Z,32096
2018-04-11T11:43:28.276Z,31904
2018-04-11T11:44:27.770Z,31392
2018-04-11T11:45:28.266Z,30368
2018-04-11T11:46:27.986Z,29536
2018-04-11T11:47:27.978Z,28000
2018-04-11T11:48:28.211Z,26176
2018-04-11T11:49:27.960Z,25472
2018-04-11T11:50:27.941Z,25504
2018-04-11T11:51:28.016Z,25312
2018-04-11T11:52:28.193Z,25152
2018-04-11T11:53:27.894Z,25280
2018-04-11T11:54:27.880Z,25504
2018-04-11T11:55:28.122Z,25696
2018-04-11T11:56:27.605Z,25152
2018-04-11T11:57:28.168Z,23552
2018-04-11T11:58:27.582Z,22272
2018-04-11T11:59:28.063Z,22560
2018-04-11T12:00:28.053Z,24672
2018-04-11T12:01:27.541Z,26752
2018-04-11T12:02:28.033Z,28096
2018-04-11T12:03:28.018Z,29184
2018-04-11T12:04:27.755Z,30048
2018-04-11T12:05:27.988Z,30912
2018-04-11T12:06:27.722Z,31360
2018-04-11T12:07:27.954Z,31872
2018-04-11T12:08:27.942Z,31360
2018-04-11T12:09:27.973Z,29344
2018-04-11T12:10:27.670Z,27488
2018-04-11T12:11:27.901Z,26656
2018-04-11T12:12:27.957Z,26400
2018-04-11T12:13:27.874Z,26368
2018-04-11T12:14:27.611Z,25888
2018-04-11T12:15:27.606Z,26656
2018-04-11T12:16:27.592Z,27232
2018-04-11T12:17:27.832Z,28384
2018-04-11T12:18:27.315Z,28960
2018-04-11T12:19:27.914Z,26112
2018-04-11T12:20:27.789Z,22208
2018-04-11T12:21:27.773Z,18560
2018-04-11T12:22:27.763Z,15996
2018-04-11T12:23:27.513Z,15896
2018-04-11T12:24:27.492Z,16156
2018-04-11T12:25:27.734Z,15776
2018-04-11T12:26:27.468Z,14688
2018-04-11T12:27:27.449Z,13480
2018-04-11T12:28:27.462Z,12984
2018-04-11T12:29:27.463Z,12868
2018-04-11T12:30:27.663Z,13260
2018-04-11T12:31:26.895Z,14492
2018-04-11T12:32:27.785Z,16444
2018-04-11T12:33:27.617Z,17356
2018-04-11T12:34:26.856Z,16480
2018-04-11T12:35:27.583Z,15412
2018-04-11T12:36:27.573Z,13600
2018-04-11T12:37:27.714Z,12084
2018-04-11T12:38:27.546Z,11308
2018-04-11T12:39:27.543Z,11036
2018-04-11T12:40:27.518Z,10636
2018-04-11T12:41:27.005Z,10348
2018-04-11T12:42:27.516Z,10120
2018-04-11T12:43:27.475Z,9728
2018-04-11T12:44:26.716Z,9160
2018-04-11T12:45:27.438Z,8572
2018-04-11T12:46:27.189Z,8108
2018-04-11T12:47:27.430Z,7940
2018-04-11T12:48:27.397Z,8232
2018-04-11T12:49:27.137Z,8740
2018-04-11T12:50:27.375Z,9376
2018-04-11T12:51:27.356Z,9792
2018-04-11T12:52:27.342Z,9716
2018-04-11T12:53:27.329Z,9288
2018-04-11T12:54:27.057Z,8852
2018-04-11T12:55:27.049Z,8240
2018-04-11T12:56:26.778Z,7428
2018-04-11T12:57:27.262Z,6820
2018-04-11T12:58:27.016Z,6552
2018-04-11T12:59:27.233Z,6468
2018-04-11T13:00:27.218Z,6572
2018-04-11T13:01:27.200Z,6864
2018-04-11T13:02:26.935Z,7152
2018-04-11T13:03:26.670Z,7148
2018-04-11T13:04:26.651Z,6848
2018-04-11T13:05:27.137Z,6476
2018-04-11T13:06:27.158Z,6256
2018-04-11T13:07:27.112Z,6376
2018-04-11T13:08:27.093Z,6844
2018-04-11T13:09:26.825Z,7592
2018-04-11T13:10:27.049Z,8540
2018-04-11T13:11:26.791Z,9160
2018-04-11T13:12:26.770Z,9468
2018-04-11T13:13:27.019Z,9352
2018-04-11T13:14:26.739Z,9128
2018-04-11T13:15:26.726Z,8904
2018-04-11T13:16:26.964Z,8824
2018-04-11T13:17:26.944Z,8736
2018-04-11T13:18:27.259Z,8932
2018-04-11T13:19:26.905Z,9804
2018-04-11T13:20:26.640Z,11412
2018-04-11T13:21:26.866Z,13216
2018-04-11T13:22:27.208Z,14848
2018-04-11T13:23:26.342Z,16516
2018-04-11T13:24:26.575Z,18208
2018-04-11T13:25:26.569Z,19616
2018-04-11T13:26:26.295Z,20512
2018-04-11T13:27:26.769Z,20544
2018-04-11T13:28:26.509Z,18752
2018-04-11T13:29:26.242Z,16036
2018-04-11T13:30:26.477Z,13648
2018-04-11T13:31:26.458Z,11952
2018-04-11T13:32:26.443Z,11460
2018-04-11T13:33:26.680Z,12204
2018-04-11T13:34:26.657Z,13520
2018-04-11T13:35:26.648Z,14764
2018-04-11T13:36:26.634Z,15524
2018-04-11T13:37:26.120Z,15120